Time;durP1;ratioP1;P1;durP2;ratioP2;P2;SDS_P1;SDS_P2;PMS_P1;PMS_P2;Temp;Humidity;BMP_temperature;BMP_pressure;BME280_temperature;BME280_humidity;BME280_pressure;Samples;Min_cycle;Max_cycle;Signal;HPM_P1;HPM_P2
2022/05/15 00:00:58;;;;;;;21.02;4.43;;;;;;;12.97;60.79;101943.59;5046839;28;20049;-69
2022/05/15 00:03:38;;;;;;;14.52;4.60;;;;;;;12.92;60.76;101944.63;5039764;28;20041;-70
2022/05/15 00:06:05;;;;;;;19.25;4.07;;;;;;;12.88;61.07;101943.81;5050206;28;20029;-69
2022/05/15 00:08:38;;;;;;;18.45;4.15;;;;;;;12.83;61.60;101943.06;5042458;28;20045;-70
2022/05/15 00:11:12;;;;;;;21.38;4.70;;;;;;;12.78;61.77;101939.63;5036725;28;20069;-69
2022/05/15 00:13:40;;;;;;;19.48;4.68;;;;;;;12.77;61.62;101940.56;5040209;28;20038;-69
2022/05/15 00:16:10;;;;;;;20.50;4.75;;;;;;;12.75;61.80;101937.91;5034904;28;20042;-68
2022/05/15 00:18:40;;;;;;;20.17;4.55;;;;;;;12.69;61.80;101935.41;5047143;28;20503;-69
2022/05/15 00:21:08;;;;;;;18.25;4.80;;;;;;;12.66;62.22;101930.19;5049746;28;20085;-70
2022/05/15 00:23:36;;;;;;;22.40;5.45;;;;;;;12.64;61.89;101930.22;5035207;28;20061;-70
2022/05/15 00:26:03;;;;;;;19.75;4.32;;;;;;;12.62;62.21;101932.03;5033393;28;20050;-70
2022/05/15 00:28:30;;;;;;;22.58;5.07;;;;;;;12.60;62.38;101932.97;5040067;28;20037;-66
2022/05/15 00:30:57;;;;;;;17.77;5.10;;;;;;;12.59;62.43;101929.44;5037426;28;20108;-67
2022/05/15 00:33:24;;;;;;;17.95;5.07;;;;;;;12.56;62.74;101938.31;5036554;28;20042;-66
2022/05/15 00:35:53;;;;;;;23.77;4.68;;;;;;;12.55;62.95;101922.50;5050256;28;20100;-66
2022/05/15 00:38:21;;;;;;;20.63;4.68;;;;;;;12.55;63.30;101926.00;5032757;28;20129;-65
2022/05/15 00:40:50;;;;;;;17.30;4.90;;;;;;;12.57;63.96;101925.94;5032780;28;20046;-65
2022/05/15 00:43:41;;;;;;;18.92;4.50;;;;;;;12.58;63.47;101935.63;5036899;28;20088;-66
2022/05/15 00:46:17;;;;;;;17.40;4.32;;;;;;;12.57;63.35;101925.94;5034788;28;20042;-65
2022/05/15 00:48:49;;;;;;;24.85;4.75;;;;;;;12.56;63.40;101924.25;5043900;28;20478;-65
2022/05/15 00:51:24;;;;;;;16.75;4.50;;;;;;;12.53;63.57;101924.28;5040499;28;20121;-66
2022/05/15 00:54:03;;;;;;;20.15;5.25;;;;;;;12.52;63.75;101919.91;5032837;28;20129;-67
2022/05/15 00:56:38;;;;;;;21.08;4.85;;;;;;;12.51;64.08;101921.69;5033085;28;20550;-68
2022/05/15 00:59:13;;;;;;;25.42;4.97;;;;;;;12.50;64.00;101933.16;5038528;28;20045;-67
2022/05/15 01:01:41;;;;;;;17.98;4.88;;;;;;;12.48;63.71;101924.41;5048529;28;20053;-68
2022/05/15 01:04:28;;;;;;;22.80;4.88;;;;;;;12.46;63.91;101923.53;5034469;28;20643;-66
2022/05/15 01:06:57;;;;;;;20.58;4.53;;;;;;;12.45;64.12;101913.00;5032883;28;20056;-68
2022/05/15 01:09:32;;;;;;;24.65;4.57;;;;;;;12.42;64.05;101912.16;5042761;28;20492;-66
2022/05/15 01:12:02;;;;;;;20.27;4.90;;;;;;;12.39;64.00;101919.28;5030960;28;20050;-67
2022/05/15 01:14:32;;;;;;;19.98;5.05;;;;;;;12.38;64.26;101913.13;5048084;28;20053;-66
2022/05/15 01:17:00;;;;;;;23.17;4.95;;;;;;;12.35;64.32;101917.59;5035082;28;20579;-66
2022/05/15 01:19:31;;;;;;;18.73;4.68;;;;;;;12.30;64.42;101911.56;5065714;28;20120;-67
2022/05/15 01:22:00;;;;;;;22.38;4.75;;;;;;;12.26;64.79;101914.25;5039297;28;20048;-66
2022/05/15 01:24:28;;;;;;;19.13;4.75;;;;;;;12.23;64.85;101910.81;5041775;28;20047;-66
2022/05/15 01:27:03;;;;;;;21.83;5.40;;;;;;;12.21;65.05;101916.09;5045357;28;20460;-66
2022/05/15 01:29:36;;;;;;;28.60;5.18;;;;;;;12.16;65.42;101903.91;5042291;28;20048;-66
2022/05/15 01:32:05;;;;;;;22.40;4.95;;;;;;;12.14;65.16;101911.00;5039768;28;20054;-65
2022/05/15 01:34:32;;;;;;;27.33;5.07;;;;;;;12.11;65.07;101909.25;5044466;28;20241;-66
2022/05/15 01:37:01;;;;;;;20.15;4.93;;;;;;;12.06;65.42;101909.34;5040297;28;20199;-67
2022/05/15 01:39:30;;;;;;;22.83;5.15;;;;;;;12.04;65.40;101916.47;5034356;28;20136;-66
2022/05/15 01:42:00;;;;;;;19.35;4.93;;;;;;;11.99;65.37;101923.59;5046925;28;20633;-65
2022/05/15 01:44:29;;;;;;;17.92;4.65;;;;;;;11.95;65.27;101922.75;5031820;28;20049;-65
2022/05/15 01:46:58;;;;;;;20.50;5.10;;;;;;;11.91;65.79;101920.19;5047211;28;20492;-67
2022/05/15 01:49:25;;;;;;;25.52;5.63;;;;;;;11.86;65.71;101919.38;5043852;28;20076;-66
2022/05/15 01:51:54;;;;;;;23.30;4.70;;;;;;;11.80;65.79;101915.97;5046531;28;20129;-67
2022/05/15 01:54:22;;;;;;;22.65;5.30;;;;;;;11.76;65.91;101922.22;5045907;28;20063;-67
2022/05/15 01:56:49;;;;;;;22.30;5.13;;;;;;;11.73;66.13;101929.31;5045745;28;20193;-67
2022/05/15 01:59:19;;;;;;;20.35;5.72;;;;;;;11.68;66.07;101917.97;5032279;28;20160;-68
2022/05/15 02:01:47;;;;;;;24.60;5.10;;;;;;;11.63;66.41;101915.41;5041786;28;20120;-66
2022/05/15 02:04:14;;;;;;;21.77;4.95;;;;;;;11.58;66.59;101910.22;5049646;28;20045;-68
2022/05/15 02:06:43;;;;;;;22.90;5.18;;;;;;;11.51;66.75;101908.56;5061131;28;20041;-68
2022/05/15 02:09:10;;;;;;;20.70;4.72;;;;;;;11.46;67.04;101911.28;5038631;28;20515;-67
2022/05/15 02:11:38;;;;;;;29.65;5.80;;;;;;;11.41;67.21;101905.22;5032709;28;20045;-68
2022/05/15 02:14:07;;;;;;;26.35;5.78;;;;;;;11.37;67.47;101910.59;5035770;28;21249;-67
2022/05/15 02:16:37;;;;;;;24.63;5.30;;;;;;;11.33;68.17;101904.47;5029908;28;20499;-68
2022/05/15 02:19:06;;;;;;;20.02;5.00;;;;;;;11.30;67.91;101909.81;5029946;28;20131;-66
2022/05/15 02:21:38;;;;;;;24.13;5.30;;;;;;;11.25;68.24;101901.97;5051931;28;20042;-65
2022/05/15 02:24:05;;;;;;;19.38;5.15;;;;;;;11.23;68.07;101908.16;5040017;28;20054;-64
2022/05/15 02:26:34;;;;;;;20.90;5.20;;;;;;;11.21;68.19;101904.69;5030368;28;20050;-65
2022/05/15 02:29:02;;;;;;;19.60;4.90;;;;;;;11.17;68.54;101911.78;5048416;28;20424;-64
2022/05/15 02:31:30;;;;;;;17.60;4.97;;;;;;;11.14;68.46;101906.53;5034390;28;20042;-65
2022/05/15 02:33:58;;;;;;;25.20;5.55;;;;;;;11.11;68.76;101904.81;5031969;28;20034;-64
2022/05/15 02:36:25;;;;;;;19.15;5.10;;;;;;;11.09;68.77;101906.59;5052301;28;20111;-66
2022/05/15 02:38:53;;;;;;;23.45;5.45;;;;;;;11.07;68.89;101911.03;5039814;28;20084;-66
2022/05/15 02:41:20;;;;;;;23.40;5.88;;;;;;;11.05;69.27;101912.81;5048777;28;20767;-65
2022/05/15 02:43:48;;;;;;;21.55;5.13;;;;;;;11.03;69.17;101910.22;5031414;28;20597;-66
2022/05/15 02:46:16;;;;;;;23.35;5.50;;;;;;;11.01;69.05;101912.00;5031335;28;20149;-66
2022/05/15 02:51:30;;;;;;;24.75;5.65;;;;;;;10.96;69.30;101912.97;5044616;28;20034;-65
2022/05/15 02:53:57;;;;;;;21.00;4.75;;;;;;;10.93;69.34;101907.75;5045474;28;20053;-66
2022/05/15 02:56:32;;;;;;;20.17;5.43;;;;;;;10.91;69.41;101912.16;5047000;28;20042;-66
2022/05/15 02:59:05;;;;;;;23.27;5.28;;;;;;;10.87;69.37;101909.56;5047653;28;20136;-69
2022/05/15 03:01:33;;;;;;;17.20;4.78;;;;;;;10.84;69.55;101904.31;5041363;28;20128;-70
2022/05/15 03:04:03;;;;;;;20.77;5.22;;;;;;;10.83;69.45;101907.00;5030570;28;20057;-68
2022/05/15 03:06:31;;;;;;;19.70;5.45;;;;;;;10.81;69.43;101907.03;5037044;28;20091;-66
2022/05/15 03:08:59;;;;;;;23.23;5.78;;;;;;;10.79;69.39;101900.91;5046399;28;20531;-67
2022/05/15 03:11:26;;;;;;;27.67;6.00;;;;;;;10.76;69.53;101895.66;5031949;28;20038;-66
2022/05/15 03:13:56;;;;;;;20.75;4.97;;;;;;;10.74;69.91;101897.44;5032113;28;20449;-68
2022/05/15 03:16:26;;;;;;;22.80;5.30;;;;;;;10.70;69.89;101901.88;5035107;28;20052;-67
2022/05/15 03:18:53;;;;;;;21.55;5.07;;;;;;;10.66;70.12;101900.19;5035230;28;20046;-66
2022/05/15 03:21:30;;;;;;;26.40;6.15;;;;;;;10.62;70.31;101900.25;5037924;28;20050;-68
2022/05/15 03:24:07;;;;;;;21.27;5.50;;;;;;;10.56;70.77;101894.16;5042327;28;20056;-69
2022/05/15 03:26:41;;;;;;;22.33;5.95;;;;;;;10.51;70.45;101889.84;5030516;28;20056;-67
2022/05/15 03:29:11;;;;;;;24.92;5.40;;;;;;;10.48;70.82;101893.41;5045259;28;20860;-68
2022/05/15 03:31:39;;;;;;;28.25;5.97;;;;;;;10.46;71.13;101899.59;5048731;28;20045;-67
2022/05/15 03:34:11;;;;;;;22.60;5.97;;;;;;;10.44;71.59;101893.47;5050512;28;20470;-68
2022/05/15 03:36:41;;;;;;;21.85;5.60;;;;;;;10.39;71.38;101886.47;5045236;28;20042;-68
2022/05/15 03:39:10;;;;;;;24.83;5.78;;;;;;;10.38;71.39;101892.63;5041595;28;20057;-68
2022/05/15 03:41:37;;;;;;;23.35;5.60;;;;;;;10.39;71.80;101888.25;5041322;28;20042;-67
2022/05/15 03:44:06;;;;;;;23.75;6.00;;;;;;;10.37;71.79;101885.66;5049478;28;20041;-68
2022/05/15 03:46:35;;;;;;;28.38;6.13;;;;;;;10.38;71.93;101887.34;5046081;28;20053;-67
2022/05/15 03:49:03;;;;;;;20.25;6.47;;;;;;;10.38;72.07;101887.34;5044262;28;20058;-67
2022/05/15 03:51:30;;;;;;;22.60;6.15;;;;;;;10.38;72.28;101886.50;5034745;28;20042;-66
2022/05/15 03:53:58;;;;;;;18.75;6.05;;;;;;;10.37;72.28;101885.66;5048779;28;20421;-67
2022/05/15 03:59:13;;;;;;;20.50;6.13;;;;;;;10.37;72.48;101887.34;5044151;28;20739;-67
2022/05/15 04:01:40;;;;;;;26.38;6.05;;;;;;;10.38;72.29;101879.44;5042840;28;20783;-67
2022/05/15 04:04:09;;;;;;;22.00;6.03;;;;;;;10.41;72.43;101876.78;5047216;28;20038;-67
2022/05/15 04:06:36;;;;;;;20.77;5.60;;;;;;;10.43;72.92;101871.47;5049870;28;20079;-68
2022/05/15 04:09:05;;;;;;;24.67;5.97;;;;;;;10.45;72.46;101874.97;5040953;28;20574;-68
2022/05/15 04:11:32;;;;;;;21.33;5.80;;;;;;;10.49;72.48;101873.16;5036704;28;20042;-67
2022/05/15 04:14:17;;;;;;;18.40;5.63;;;;;;;10.52;72.33;101881.94;5039422;28;20042;-67
2022/05/15 04:16:44;;;;;;;24.20;5.70;;;;;;;10.59;72.17;101882.69;5038707;28;20048;-65
2022/05/15 04:19:12;;;;;;;25.60;5.78;;;;;;;10.63;72.11;101878.28;5034432;28;20446;-65
2022/05/15 04:21:40;;;;;;;20.92;6.38;;;;;;;10.66;71.94;101883.50;5038568;28;20041;-65
2022/05/15 04:24:12;;;;;;;20.42;6.32;;;;;;;10.68;72.01;101879.94;5038293;28;20050;-68
2022/05/15 04:26:42;;;;;;;21.10;5.95;;;;;;;10.72;71.57;101884.28;5036916;28;20069;-64
2022/05/15 04:29:10;;;;;;;27.83;6.22;;;;;;;10.80;71.61;101884.19;5042268;28;20042;-64
2022/05/15 04:31:38;;;;;;;18.90;5.63;;;;;;;10.86;71.42;101884.06;5046972;28;20042;-65
2022/05/15 04:34:06;;;;;;;18.33;5.70;;;;;;;10.91;71.22;101893.69;5039688;28;20941;-65
2022/05/15 04:36:34;;;;;;;21.45;5.63;;;;;;;10.96;71.18;101889.22;5032618;28;20038;-67
2022/05/15 04:39:04;;;;;;;24.25;5.90;;;;;;;11.02;71.16;101870.66;5043798;28;20427;-68
2022/05/15 04:41:32;;;;;;;22.98;5.85;;;;;;;11.12;70.88;101880.19;5036253;28;20049;-68
2022/05/15 04:44:00;;;;;;;21.58;5.60;;;;;;;11.19;70.80;101883.59;5032892;28;20042;-66
2022/05/15 04:46:29;;;;;;;22.70;5.35;;;;;;;11.29;70.66;101882.50;5036642;28;20050;-66
2022/05/15 04:48:58;;;;;;;25.45;5.60;;;;;;;11.43;70.20;101889.34;5047145;28;20101;-67
2022/05/15 04:51:26;;;;;;;18.20;5.30;;;;;;;11.69;69.77;101885.38;5044397;28;20041;-68
2022/05/15 04:53:54;;;;;;;19.98;5.28;;;;;;;11.94;69.36;101894.56;5042620;28;20067;-68
2022/05/15 04:56:22;;;;;;;25.73;6.00;;;;;;;12.15;68.94;101900.38;5036170;28;20046;-67
2022/05/15 04:58:49;;;;;;;18.77;5.72;;;;;;;12.41;68.28;101901.63;5032754;28;22172;-66
2022/05/15 05:01:18;;;;;;;22.52;5.93;;;;;;;12.64;67.90;101897.59;5033197;28;20038;-69
2022/05/15 05:03:45;;;;;;;23.48;5.53;;;;;;;12.96;67.12;101901.28;5035601;28;20798;-68
2022/05/15 05:06:12;;;;;;;22.98;5.80;;;;;;;13.01;66.22;101902.91;5032344;28;20748;-68
2022/05/15 05:08:39;;;;;;;21.20;5.57;;;;;;;13.06;66.33;101905.47;5037146;28;20042;-67
2022/05/15 05:11:06;;;;;;;21.58;5.80;;;;;;;13.29;65.79;101902.25;5033659;28;20042;-67
2022/05/15 05:13:33;;;;;;;20.05;6.35;;;;;;;13.86;64.94;101892.00;5034834;28;20033;-68
2022/05/15 05:16:00;;;;;;;25.77;6.10;;;;;;;13.97;64.06;101889.94;5043472;28;20045;-68
2022/05/15 05:18:27;;;;;;;23.45;6.05;;;;;;;14.21;63.44;101894.56;5042775;28;20157;-67
2022/05/15 05:20:54;;;;;;;17.30;5.55;;;;;;;14.74;62.26;101889.47;5032071;28;20975;-67
2022/05/15 05:23:22;;;;;;;21.13;5.28;;;;;;;15.21;61.28;101886.19;5031818;28;20846;-69
2022/05/15 05:25:49;;;;;;;19.23;5.53;;;;;;;15.94;59.11;101885.50;5032602;28;20037;-68
2022/05/15 05:28:16;;;;;;;18.10;5.70;;;;;;;16.50;58.00;101884.31;5035472;28;20048;-66
2022/05/15 05:30:44;;;;;;;22.27;5.63;;;;;;;17.26;56.32;101888.44;5039755;28;20049;-66
2022/05/15 05:33:12;;;;;;;23.15;6.03;;;;;;;18.03;53.66;101886.94;5038449;28;20037;-68
2022/05/15 05:35:40;;;;;;;19.90;6.20;;;;;;;18.73;52.64;101893.44;5032853;28;20057;-67
2022/05/15 05:38:09;;;;;;;22.00;5.25;;;;;;;19.30;51.45;101888.94;5036717;28;20169;-70
2022/05/15 05:40:37;;;;;;;19.38;5.20;;;;;;;19.87;49.71;101888.69;5043097;28;20133;-69
2022/05/15 05:43:04;;;;;;;21.63;5.80;;;;;;;20.30;48.81;101891.75;5034295;28;20046;-69
2022/05/15 05:45:34;;;;;;;19.13;5.53;;;;;;;20.76;47.11;101903.53;5036888;28;20506;-69
2022/05/15 05:48:01;;;;;;;15.90;5.43;;;;;;;21.13;45.87;101892.50;5032573;28;20046;-69
2022/05/15 05:50:29;;;;;;;13.40;5.45;;;;;;;21.40;44.82;101893.59;5033766;28;20121;-66
2022/05/15 05:52:59;;;;;;;16.77;5.22;;;;;;;21.65;44.08;101897.47;5042980;28;20099;-66
2022/05/15 05:55:27;;;;;;;19.08;5.18;;;;;;;21.83;43.85;101890.13;5038617;28;20045;-67
2022/05/15 05:57:54;;;;;;;18.00;5.30;;;;;;;21.99;43.18;101895.41;5033484;28;20041;-64
2022/05/15 06:00:31;;;;;;;15.48;5.15;;;;;;;21.87;42.97;101890.81;5036548;28;20034;-66
2022/05/15 06:05:46;;;;;;;17.50;5.65;;;;;;;19.63;45.68;101898.84;5028540;28;20045;-66
2022/05/15 06:08:15;;;;;;;20.75;5.88;;;;;;;18.78;47.89;101902.09;5036534;28;20488;-69
2022/05/15 06:10:43;;;;;;;19.58;5.63;;;;;;;18.16;49.62;101896.13;5040958;28;20076;-67
2022/05/15 06:13:11;;;;;;;17.90;5.53;;;;;;;17.68;50.94;101900.88;5020032;28;20048;-68
2022/05/15 06:15:39;;;;;;;19.55;5.22;;;;;;;17.42;52.53;101902.84;5033914;28;20041;-67
2022/05/15 06:18:08;;;;;;;17.67;6.03;;;;;;;17.24;52.91;101904.50;5038553;28;20042;-67
2022/05/15 06:20:35;;;;;;;23.67;6.00;;;;;;;17.04;53.51;101900.84;5033270;28;20041;-67
2022/05/15 06:23:04;;;;;;;17.73;6.38;;;;;;;16.86;53.91;101899.78;5036169;28;20144;-68
2022/05/15 06:25:32;;;;;;;19.90;6.07;;;;;;;16.73;54.45;101895.84;5037655;28;20057;-69
2022/05/15 06:27:59;;;;;;;17.83;5.80;;;;;;;16.66;54.67;101889.91;5037263;28;20041;-66
2022/05/15 06:30:26;;;;;;;19.90;6.80;;;;;;;16.63;55.26;101890.03;5028026;28;20121;-70
2022/05/15 06:32:53;;;;;;;22.75;6.32;;;;;;;16.68;55.25;101895.19;5033879;28;20033;-69
2022/05/15 06:35:21;;;;;;;19.52;6.07;;;;;;;16.74;55.05;101884.28;5032027;28;20042;-68
2022/05/15 06:37:48;;;;;;;18.42;5.95;;;;;;;16.80;55.26;101889.34;5039900;28;20045;-69
2022/05/15 06:40:17;;;;;;;20.15;6.80;;;;;;;16.95;55.31;101887.03;5037438;28;20038;-68
2022/05/15 06:42:47;;;;;;;19.83;5.72;;;;;;;17.07;54.92;101890.06;5035884;28;20044;-68
2022/05/15 06:45:16;;;;;;;16.63;5.90;;;;;;;17.23;54.54;101898.28;5034529;28;20112;-69
2022/05/15 06:47:44;;;;;;;17.98;5.68;;;;;;;17.37;54.42;101895.03;5033055;28;20534;-69
2022/05/15 06:50:11;;;;;;;19.45;6.30;;;;;;;17.57;54.07;101897.81;5036939;28;20041;-69
2022/05/15 06:52:39;;;;;;;19.63;6.22;;;;;;;17.70;53.47;101899.88;5037037;28;20111;-67
2022/05/15 06:55:12;;;;;;;17.77;5.88;;;;;;;17.80;53.39;101889.69;5035378;28;20037;-67
2022/05/15 06:57:41;;;;;;;19.38;6.15;;;;;;;17.88;53.16;101894.66;5037789;28;20045;-68
2022/05/15 07:00:16;;;;;;;16.38;6.00;;;;;;;17.93;52.99;101905.09;5031623;28;20046;-68
2022/05/15 07:02:46;;;;;;;18.77;6.32;;;;;;;17.99;53.08;101897.72;5037186;28;20131;-68
2022/05/15 07:05:21;;;;;;;20.48;6.30;;;;;;;18.15;52.65;101902.41;5031183;28;20817;-68
2022/05/15 07:07:52;;;;;;;25.20;6.38;;;;;;;18.19;52.62;101901.31;5028652;28;20056;-67
2022/05/15 07:10:20;;;;;;;16.38;6.68;;;;;;;18.14;52.41;101900.66;5041068;28;20058;-67
2022/05/15 07:12:48;;;;;;;18.85;7.05;;;;;;;18.10;52.37;101896.38;5038553;28;20799;-68
2022/05/15 07:15:15;;;;;;;19.10;6.18;;;;;;;18.16;52.65;101894.31;5038445;28;20051;-68
2022/05/15 07:17:42;;;;;;;13.57;6.00;;;;;;;18.33;52.78;101891.81;5040784;28;20048;-70
2022/05/15 07:20:10;;;;;;;18.40;6.28;;;;;;;18.58;52.65;101889.69;5039608;28;20046;-69
2022/05/15 07:22:39;;;;;;;24.58;7.05;;;;;;;18.80;52.32;101893.16;5034214;28;20061;-68
2022/05/15 07:25:07;;;;;;;18.83;6.50;;;;;;;18.95;51.04;101897.78;5039546;28;20084;-69
2022/05/15 07:27:34;;;;;;;14.50;6.55;;;;;;;19.02;51.28;101901.00;5045284;28;20038;-69
2022/05/15 07:30:02;;;;;;;18.85;6.68;;;;;;;19.15;51.53;101898.59;5037108;28;20042;-69
2022/05/15 07:32:29;;;;;;;17.45;6.97;;;;;;;19.29;50.84;101895.22;5030974;28;20069;-70
2022/05/15 07:34:56;;;;;;;18.95;6.97;;;;;;;19.42;50.28;101893.66;5032654;28;20034;-69
2022/05/15 07:37:23;;;;;;;17.48;6.63;;;;;;;19.58;50.21;101900.91;5050445;28;20061;-70
2022/05/15 07:39:50;;;;;;;16.00;6.00;;;;;;;19.76;49.99;101891.03;5040056;28;20042;-70
2022/05/15 07:42:17;;;;;;;18.35;6.40;;;;;;;19.86;49.47;101895.88;5040198;28;20149;-68
2022/05/15 07:44:45;;;;;;;16.52;6.20;;;;;;;19.96;49.36;101900.75;5041984;28;20095;-69
2022/05/15 07:47:12;;;;;;;15.88;5.93;;;;;;;20.06;49.57;101898.41;5034355;28;20045;-68
2022/05/15 07:49:44;;;;;;;17.00;5.88;;;;;;;20.26;48.89;101900.03;5042806;28;20045;-69
2022/05/15 07:52:11;;;;;;;16.85;6.47;;;;;;;20.39;47.99;101892.19;5040912;28;20527;-68
2022/05/15 07:54:38;;;;;;;17.77;6.07;;;;;;;20.52;48.28;101897.72;5036608;28;20120;-69
2022/05/15 07:57:06;;;;;;;20.05;6.28;;;;;;;20.64;47.39;101883.63;5039085;28;20041;-68
2022/05/15 07:59:33;;;;;;;21.98;7.10;;;;;;;20.72;46.71;101873.34;5045053;28;20045;-69
2022/05/15 08:02:05;;;;;;;17.58;5.80;;;;;;;20.81;47.29;101877.34;5034176;28;20042;-69
2022/05/15 08:08:00;;;;;;;13.25;6.00;;;;;;;20.96;47.49;101880.13;5039361;28;20048;-69
2022/05/15 08:10:10;;;;;;;18.92;5.70;;;;;;;21.15;46.55;101874.53;5049338;28;20046;-69
2022/05/15 08:12:39;;;;;;;14.45;5.28;;;;;;;21.27;46.67;101876.47;5048216;28;20042;-69
2022/05/15 08:15:08;;;;;;;15.05;6.05;;;;;;;21.37;44.94;101877.66;5052348;28;20034;-69
2022/05/15 08:17:35;;;;;;;17.67;6.03;;;;;;;21.47;44.22;101883.31;5040490;28;20470;-69
2022/05/15 08:25:40;;;;;;;15.98;5.25;;;;;;;21.83;44.52;101868.66;5064908;28;20041;-69
2022/05/15 08:28:07;;;;;;;14.25;4.85;;;;;;;21.94;44.26;101867.97;5058978;28;20045;-69
2022/05/15 08:30:35;;;;;;;13.32;5.40;;;;;;;22.08;44.74;101867.13;5051931;28;20041;-69
2022/05/15 08:33:04;;;;;;;14.77;5.30;;;;;;;22.28;43.93;101863.19;5037743;28;20042;-69
2022/05/15 08:35:31;;;;;;;17.35;5.90;;;;;;;22.52;43.59;101867.09;5044256;28;20038;-70
2022/05/15 08:37:58;;;;;;;13.18;5.05;;;;;;;22.62;41.52;101869.09;5047578;28;20038;-69
2022/05/15 08:40:40;;;;;;;12.05;4.63;;;;;;;22.67;41.74;101851.78;5038515;28;20504;-69
2022/05/15 08:43:10;;;;;;;15.95;5.10;;;;;;;22.78;41.86;101855.50;5033821;28;20124;-69
2022/05/15 08:45:45;;;;;;;18.08;4.97;;;;;;;22.96;40.62;101857.94;5033555;28;20048;-69
2022/05/15 08:48:13;;;;;;;14.45;4.88;;;;;;;23.01;40.46;101854.94;5034478;28;20038;-69
2022/05/15 08:50:49;;;;;;;13.68;4.50;;;;;;;23.07;40.22;101854.50;5033618;28;20045;-69
2022/05/15 08:53:34;;;;;;;13.95;5.28;;;;;;;23.07;39.90;101851.81;5033931;28;20040;-69
2022/05/15 08:56:08;;;;;;;14.18;4.90;;;;;;;23.18;39.83;101862.72;5042178;28;20052;-69
2022/05/15 08:58:54;;;;;;;14.57;4.55;;;;;;;23.31;38.79;101849.31;5040541;28;20709;-69
2022/05/15 09:01:27;;;;;;;16.08;4.47;;;;;;;23.42;38.69;101841.38;5032965;28;20042;-68
2022/05/15 09:03:56;;;;;;;12.55;3.47;;;;;;;23.44;37.41;101843.09;5033645;28;20101;-69
2022/05/15 09:06:23;;;;;;;17.10;4.72;;;;;;;23.45;36.62;101834.94;5044104;28;20088;-69
2022/05/15 09:09:26;;;;;;;9.80;3.88;;;;;;;23.44;36.17;101826.94;5041063;28;20037;-69
2022/05/15 09:11:59;;;;;;;12.75;3.78;;;;;;;23.49;37.20;101824.81;5043223;28;20526;-69
2022/05/15 09:14:39;;;;;;;11.35;3.03;;;;;;;23.68;36.37;101827.94;5035542;28;20056;-69
2022/05/15 09:17:42;;;;;;;13.55;3.55;;;;;;;23.95;35.65;101829.66;5033376;28;20550;-70
2022/05/15 09:20:39;;;;;;;10.40;3.47;;;;;;;24.10;34.75;101829.53;5046667;28;20048;-68
2022/05/15 09:23:39;;;;;;;9.02;3.60;;;;;;;24.12;34.28;101833.81;5038806;28;20058;-68
2022/05/15 09:26:06;;;;;;;13.07;4.20;;;;;;;24.18;34.33;101833.38;5049910;28;20049;-68
2022/05/15 09:28:45;;;;;;;12.80;4.05;;;;;;;24.12;34.46;101835.63;5039676;28;20486;-68
2022/05/15 09:31:42;;;;;;;12.40;3.80;;;;;;;23.96;34.61;101830.53;5032712;28;20046;-69
2022/05/15 09:34:31;;;;;;;11.35;4.10;;;;;;;23.90;33.64;101839.88;5034287;28;20081;-69
2022/05/15 09:39:51;;;;;;;12.20;3.78;;;;;;;24.12;33.67;101831.13;5037250;28;20526;-70
2022/05/15 09:45:25;;;;;;;9.40;3.55;;;;;;;24.38;33.23;101822.97;5032721;28;20492;-69
2022/05/15 09:47:52;;;;;;;11.07;3.95;;;;;;;24.39;32.82;101822.00;5035686;28;20546;-69
2022/05/15 09:50:47;;;;;;;11.38;3.67;;;;;;;24.32;32.02;101821.56;5043070;28;20041;-69
2022/05/15 09:53:31;;;;;;;12.25;3.33;;;;;;;24.37;31.57;101820.38;5039314;28;20149;-68
2022/05/15 09:56:08;;;;;;;16.48;4.53;;;;;;;24.49;32.60;101814.94;5041047;28;20034;-69
2022/05/15 09:58:51;;;;;;;9.93;4.00;;;;;;;24.52;31.82;101807.63;5038569;28;20188;-69
2022/05/15 10:01:28;;;;;;;10.70;3.70;;;;;;;24.56;33.00;101793.78;5038564;28;20583;-69
2022/05/15 10:03:58;;;;;;;12.40;3.15;;;;;;;24.72;32.72;101801.63;5040451;28;20057;-69
2022/05/15 10:06:33;;;;;;;8.82;3.05;;;;;;;24.89;32.37;101797.66;5033342;28;20034;-69
2022/05/15 10:09:21;;;;;;;10.00;2.70;;;;;;;25.06;32.17;101795.47;5044463;28;20037;-69
2022/05/15 10:11:59;;;;;;;9.48;2.65;;;;;;;25.26;31.08;101794.78;5044525;28;20192;-69
2022/05/15 10:14:41;;;;;;;11.85;2.63;;;;;;;25.27;29.52;101795.66;5047850;28;20091;-69
2022/05/15 10:17:13;;;;;;;9.95;2.30;;;;;;;25.22;29.67;101805.94;5042289;28;20045;-69
2022/05/15 10:20:07;;;;;;;9.15;2.50;;;;;;;25.28;29.29;101800.94;5044517;28;20042;-69
2022/05/15 10:23:00;;;;;;;12.18;2.90;;;;;;;25.39;27.44;101789.28;5044490;28;20065;-70
2022/05/15 10:25:48;;;;;;;9.38;2.50;;;;;;;25.42;27.71;101789.09;5038287;28;20050;-69
2022/05/15 10:28:27;;;;;;;7.43;2.00;;;;;;;25.48;26.83;101786.91;5050268;28;20076;-69
2022/05/15 10:31:28;;;;;;;9.57;2.38;;;;;;;25.56;27.43;101790.69;5034396;28;20045;-70
2022/05/15 10:34:01;;;;;;;8.88;2.25;;;;;;;25.64;27.17;101795.47;5032314;28;20148;-69
2022/05/15 10:36:42;;;;;;;7.57;1.83;;;;;;;25.70;27.25;101786.03;5040847;28;20041;-69
2022/05/15 10:39:40;;;;;;;6.57;1.65;;;;;;;25.92;25.69;101781.59;5031518;28;20049;-69
2022/05/15 10:42:57;;;;;;;8.52;1.95;;;;;;;26.20;25.12;101782.91;5041027;28;20058;-69
2022/05/15 10:45:44;;;;;;;8.82;1.75;;;;;;;26.33;24.42;101772.81;5037805;28;20045;-69
2022/05/15 10:49:07;;;;;;;9.05;2.00;;;;;;;26.46;25.60;101774.50;5031853;28;20128;-70
2022/05/15 10:52:12;;;;;;;7.68;2.05;;;;;;;26.66;25.23;101775.53;5031353;28;20072;-70
2022/05/15 10:58:33;;;;;;;8.88;2.60;;;;;;;26.70;26.16;101760.75;5036513;28;20068;-69
2022/05/15 11:01:06;;;;;;;8.50;1.80;;;;;;;26.71;26.70;101762.47;5034880;28;20050;-69
2022/05/15 11:03:54;;;;;;;8.80;2.25;;;;;;;26.86;25.24;101762.22;5036274;28;20121;-69
2022/05/15 11:06:40;;;;;;;8.73;1.70;;;;;;;27.05;24.46;101747.94;5032499;28;20641;-69
2022/05/15 11:09:16;;;;;;;8.50;2.20;;;;;;;27.18;24.75;101750.44;5037513;28;20088;-69
2022/05/15 11:12:41;;;;;;;5.28;1.58;;;;;;;27.32;24.49;101743.84;5034262;28;20045;-69
2022/05/15 11:15:41;;;;;;;7.95;2.15;;;;;;;27.12;23.29;101746.41;5035410;28;20038;-69
2022/05/15 11:18:52;;;;;;;5.82;1.85;;;;;;;26.90;23.54;101742.88;5043787;28;20044;-68
2022/05/15 11:21:36;;;;;;;4.63;1.60;;;;;;;26.70;24.05;101741.84;5041554;28;20041;-68
2022/05/15 11:24:39;;;;;;;9.43;2.08;;;;;;;26.70;24.43;101743.69;5050807;28;20049;-70
2022/05/15 11:27:34;;;;;;;5.82;1.67;;;;;;;26.88;23.86;101727.75;5034027;28;20061;-70
2022/05/15 11:30:11;;;;;;;5.35;1.65;;;;;;;26.97;22.47;101738.66;5031161;28;20046;-69
2022/05/15 11:32:47;;;;;;;6.65;1.60;;;;;;;26.91;22.57;101728.34;5039025;28;20046;-70
2022/05/15 11:35:20;;;;;;;6.20;1.50;;;;;;;26.99;22.81;101724.13;5034044;28;20058;-69
2022/05/15 11:37:56;;;;;;;5.65;1.75;;;;;;;27.20;22.47;101713.28;5035140;28;20080;-69
2022/05/15 11:40:45;;;;;;;5.80;1.48;;;;;;;27.35;21.54;101703.81;5031343;28;20041;-69
2022/05/15 11:43:28;;;;;;;5.90;1.70;;;;;;;27.46;21.50;101716.41;5031232;28;20049;-69
2022/05/15 11:46:04;;;;;;;7.95;1.70;;;;;;;27.37;22.54;101709.91;5031405;28;20046;-68
2022/05/15 11:48:51;;;;;;;6.45;1.80;;;;;;;27.36;22.16;101696.53;5049455;28;20076;-68
2022/05/15 11:51:30;;;;;;;11.55;2.03;;;;;;;27.45;23.26;101694.91;5040633;28;20125;-69
2022/05/15 11:54:07;;;;;;;7.03;1.90;;;;;;;27.51;22.42;101697.94;5037243;28;20108;-70
2022/05/15 11:56:59;;;;;;;11.05;1.77;;;;;;;27.55;22.57;101687.66;5036194;28;20062;-69
2022/05/15 11:59:51;;;;;;;4.88;1.70;;;;;;;27.59;23.44;101691.78;5036954;28;20050;-68
2022/05/15 12:02:21;;;;;;;5.30;1.77;;;;;;;27.77;23.37;101692.00;5042692;28;20049;-68
2022/05/15 12:04:48;;;;;;;5.97;1.65;;;;;;;28.03;22.24;101681.50;5045877;28;20042;-68
2022/05/15 12:07:15;;;;;;;7.35;1.90;;;;;;;28.06;20.90;101691.19;5054164;28;20060;-68
2022/05/15 12:09:44;;;;;;;6.47;1.77;;;;;;;27.88;21.47;101682.88;5051478;28;20045;-69
2022/05/15 12:12:20;;;;;;;5.30;1.52;;;;;;;27.68;21.93;101682.00;5044464;28;20104;-68